Terminal Aerodrome Forecast
Issued by NWS

Home | Current Version | Previous Version | Text Only | Print | Product List | Glossary On
Versions: 1 2 3 4 5 6 7 8 9 10 11 12
000
FTUS43 KMQT 161700
TAFSAW
TAF
KSAW 161726Z 1618/1718 22011G18KT P6SM SCT120
     FM170000 VRB04KT P6SM BKN080
     FM171700 02014G19KT P6SM OVC010
      AMD LTD TO CLD VIS AND WIND 1702/1710=

USA.gov is the U.S. government's official web portal to all federal, state and local government web resources and services.